sensor_id;sensor_type;location;lat;lon;timestamp;pressure;altitude;pressure_sealevel;temperature;humidity
69713;BME280;56980;51.826;4.424;2022-08-11T00:00:47;102401.78;;;23.59;54.73
69713;BME280;56980;51.826;4.424;2022-08-11T00:03:14;102402.56;;;23.65;54.36
69713;BME280;56980;51.826;4.424;2022-08-11T00:05:50;102395.97;;;23.57;54.72
69713;BME280;56980;51.826;4.424;2022-08-11T00:08:28;102408.31;;;23.56;54.76
69713;BME280;56980;51.826;4.424;2022-08-11T00:11:06;102400.28;;;23.64;53.85
69713;BME280;56980;51.826;4.424;2022-08-11T00:13:41;102412.44;;;23.72;53.60
69713;BME280;56980;51.826;4.424;2022-08-11T00:16:21;102415.38;;;23.37;54.98
69713;BME280;56980;51.826;4.424;2022-08-11T00:18:50;102417.97;;;23.46;54.22
69713;BME280;56980;51.826;4.424;2022-08-11T00:21:17;102411.34;;;23.38;54.67
69713;BME280;56980;51.826;4.424;2022-08-11T00:23:46;102405.38;;;23.45;54.25
69713;BME280;56980;51.826;4.424;2022-08-11T00:26:17;102402.09;;;23.41;54.01
69713;BME280;56980;51.826;4.424;2022-08-11T00:28:42;102402.56;;;23.40;53.93
69713;BME280;56980;51.826;4.424;2022-08-11T00:31:19;102411.69;;;23.46;53.63
69713;BME280;56980;51.826;4.424;2022-08-11T00:33:46;102411.59;;;23.35;53.66
69713;BME280;56980;51.826;4.424;2022-08-11T00:36:15;102416.38;;;23.34;54.24
69713;BME280;56980;51.826;4.424;2022-08-11T00:38:43;102412.25;;;23.04;54.69
69713;BME280;56980;51.826;4.424;2022-08-11T00:49:48;102413.50;;;23.23;54.05
69713;BME280;56980;51.826;4.424;2022-08-11T01:01:19;102418.63;;;23.10;54.29
69713;BME280;56980;51.826;4.424;2022-08-11T01:04:10;102427.13;;;23.06;54.41
69713;BME280;56980;51.826;4.424;2022-08-11T01:48:12;102408.00;;;22.62;54.46
69713;BME280;56980;51.826;4.424;2022-08-11T01:53:56;102403.97;;;22.43;55.07
69713;BME280;56980;51.826;4.424;2022-08-11T01:56:32;102400.78;;;22.50;54.50
69713;BME280;56980;51.826;4.424;2022-08-11T01:59:31;102407.47;;;22.43;55.17
69713;BME280;56980;51.826;4.424;2022-08-11T02:02:25;102406.88;;;22.54;54.55
69713;BME280;56980;51.826;4.424;2022-08-11T02:05:27;102404.88;;;22.34;55.14
69713;BME280;56980;51.826;4.424;2022-08-11T02:10:44;102407.16;;;22.36;54.85
69713;BME280;56980;51.826;4.424;2022-08-11T02:18:52;102408.09;;;22.33;54.69
69713;BME280;56980;51.826;4.424;2022-08-11T02:21:44;102396.97;;;22.27;54.63
69713;BME280;56980;51.826;4.424;2022-08-11T02:24:34;102399.38;;;22.20;55.08
69713;BME280;56980;51.826;4.424;2022-08-11T02:27:07;102395.81;;;21.99;55.22
69713;BME280;56980;51.826;4.424;2022-08-11T02:29:53;102392.56;;;22.15;54.59
69713;BME280;56980;51.826;4.424;2022-08-11T02:32:27;102376.63;;;21.75;55.67
69713;BME280;56980;51.826;4.424;2022-08-11T02:35:19;102395.88;;;21.90;55.53
69713;BME280;56980;51.826;4.424;2022-08-11T02:44:05;102385.63;;;22.05;54.93
69713;BME280;56980;51.826;4.424;2022-08-11T02:47:07;102384.00;;;21.98;54.96
69713;BME280;56980;51.826;4.424;2022-08-11T02:50:03;102382.78;;;21.99;54.95
69713;BME280;56980;51.826;4.424;2022-08-11T02:52:39;102370.28;;;21.89;54.53
69713;BME280;56980;51.826;4.424;2022-08-11T02:55:21;102377.06;;;21.88;54.89
69713;BME280;56980;51.826;4.424;2022-08-11T02:58:02;102367.25;;;21.87;54.70
69713;BME280;56980;51.826;4.424;2022-08-11T03:00:45;102376.78;;;21.86;54.64
69713;BME280;56980;51.826;4.424;2022-08-11T03:03:20;102373.72;;;21.84;54.92
69713;BME280;56980;51.826;4.424;2022-08-11T03:09:21;102376.88;;;21.77;54.88
69713;BME280;56980;51.826;4.424;2022-08-11T03:11:55;102381.63;;;21.77;54.83
69713;BME280;56980;51.826;4.424;2022-08-11T03:15:02;102373.75;;;21.69;54.94
69713;BME280;56980;51.826;4.424;2022-08-11T03:21:18;102378.25;;;21.52;55.16
69713;BME280;56980;51.826;4.424;2022-08-11T03:23:52;102379.47;;;21.66;54.78
69713;BME280;56980;51.826;4.424;2022-08-11T03:26:27;102379.84;;;21.59;54.91
69713;BME280;56980;51.826;4.424;2022-08-11T03:31:43;102379.19;;;21.64;54.53
69713;BME280;56980;51.826;4.424;2022-08-11T03:34:20;102376.53;;;21.55;54.94
69713;BME280;56980;51.826;4.424;2022-08-11T03:40:32;102371.00;;;21.40;55.12
69713;BME280;56980;51.826;4.424;2022-08-11T03:46:15;102351.13;;;21.36;55.04
69713;BME280;56980;51.826;4.424;2022-08-11T03:49:10;102364.06;;;21.45;55.17
69713;BME280;56980;51.826;4.424;2022-08-11T03:57:53;102377.56;;;21.43;55.39
69713;BME280;56980;51.826;4.424;2022-08-11T04:00:45;102369.78;;;21.41;55.42
69713;BME280;56980;51.826;4.424;2022-08-11T04:06:20;102368.72;;;21.24;56.07
69713;BME280;56980;51.826;4.424;2022-08-11T04:20:17;102365.19;;;21.23;55.89
69713;BME280;56980;51.826;4.424;2022-08-11T04:23:06;102366.06;;;21.29;55.69
69713;BME280;56980;51.826;4.424;2022-08-11T04:28:54;102364.94;;;21.21;55.77
69713;BME280;56980;51.826;4.424;2022-08-11T04:31:43;102359.13;;;21.19;55.73
69713;BME280;56980;51.826;4.424;2022-08-11T04:37:35;102365.91;;;21.09;56.39
69713;BME280;56980;51.826;4.424;2022-08-11T04:43:11;102367.25;;;20.99;56.85
69713;BME280;56980;51.826;4.424;2022-08-11T04:46:25;102365.50;;;21.02;56.84
69713;BME280;56980;51.826;4.424;2022-08-11T04:57:52;102379.00;;;20.85;57.53
69713;BME280;56980;51.826;4.424;2022-08-11T05:04:02;102373.47;;;20.85;57.65
69713;BME280;56980;51.826;4.424;2022-08-11T05:07:35;102372.06;;;20.89;57.47
69713;BME280;56980;51.826;4.424;2022-08-11T05:13:31;102363.69;;;20.84;57.56
69713;BME280;56980;51.826;4.424;2022-08-11T05:16:20;102374.81;;;20.89;57.68
69713;BME280;56980;51.826;4.424;2022-08-11T05:19:05;102355.97;;;20.88;57.22
69713;BME280;56980;51.826;4.424;2022-08-11T05:21:54;102369.41;;;20.95;57.62
69713;BME280;56980;51.826;4.424;2022-08-11T05:27:43;102380.31;;;20.89;57.60
69713;BME280;56980;51.826;4.424;2022-08-11T05:30:29;102373.50;;;21.00;57.15
69713;BME280;56980;51.826;4.424;2022-08-11T05:33:21;102364.19;;;20.97;57.29
69713;BME280;56980;51.826;4.424;2022-08-11T05:38:35;102367.84;;;21.18;56.68
69713;BME280;56980;51.826;4.424;2022-08-11T05:41:22;102377.19;;;21.20;56.81
69713;BME280;56980;51.826;4.424;2022-08-11T05:44:08;102381.47;;;21.36;56.42
69713;BME280;56980;51.826;4.424;2022-08-11T05:46:53;102366.72;;;21.24;56.77
69713;BME280;56980;51.826;4.424;2022-08-11T05:49:39;102377.09;;;21.29;56.69
69713;BME280;56980;51.826;4.424;2022-08-11T05:52:26;102383.44;;;21.35;56.69
69713;BME280;56980;51.826;4.424;2022-08-11T05:55:12;102376.03;;;21.42;56.28
69713;BME280;56980;51.826;4.424;2022-08-11T05:58:05;102375.56;;;21.28;56.94
69713;BME280;56980;51.826;4.424;2022-08-11T06:00:40;102378.72;;;21.51;55.68
69713;BME280;56980;51.826;4.424;2022-08-11T06:03:07;102368.25;;;21.40;55.86
69713;BME280;56980;51.826;4.424;2022-08-11T06:05:39;102369.75;;;21.56;55.58
69713;BME280;56980;51.826;4.424;2022-08-11T06:08:09;102379.69;;;21.48;55.57
69713;BME280;56980;51.826;4.424;2022-08-11T06:10:38;102378.69;;;21.36;56.42
69713;BME280;56980;51.826;4.424;2022-08-11T06:13:07;102386.50;;;21.67;55.72
69713;BME280;56980;51.826;4.424;2022-08-11T06:15:42;102386.97;;;21.80;55.21
69713;BME280;56980;51.826;4.424;2022-08-11T06:18:09;102390.97;;;21.79;55.62
69713;BME280;56980;51.826;4.424;2022-08-11T06:20:48;102383.63;;;21.76;55.07
69713;BME280;56980;51.826;4.424;2022-08-11T06:23:15;102380.78;;;21.85;55.02
69713;BME280;56980;51.826;4.424;2022-08-11T06:25:44;102388.00;;;21.97;54.68
69713;BME280;56980;51.826;4.424;2022-08-11T06:28:11;102394.88;;;22.02;54.80
69713;BME280;56980;51.826;4.424;2022-08-11T06:30:39;102389.91;;;22.06;54.08
69713;BME280;56980;51.826;4.424;2022-08-11T06:33:12;102382.28;;;21.86;55.25
69713;BME280;56980;51.826;4.424;2022-08-11T06:36:01;102385.44;;;22.08;54.30
69713;BME280;56980;51.826;4.424;2022-08-11T06:38:52;102386.66;;;22.07;54.10
69713;BME280;56980;51.826;4.424;2022-08-11T06:41:29;102385.88;;;22.22;53.73
69713;BME280;56980;51.826;4.424;2022-08-11T06:46:38;102381.03;;;22.37;53.27
69713;BME280;56980;51.826;4.424;2022-08-11T06:49:05;102389.31;;;22.37;53.80
69713;BME280;56980;51.826;4.424;2022-08-11T06:51:33;102381.19;;;22.48;52.55
69713;BME280;56980;51.826;4.424;2022-08-11T06:54:02;102385.94;;;22.47;53.03
69713;BME280;56980;51.826;4.424;2022-08-11T06:56:35;102378.44;;;22.48;53.31
69713;BME280;56980;51.826;4.424;2022-08-11T06:59:21;102385.91;;;22.62;52.78
69713;BME280;56980;51.826;4.424;2022-08-11T07:02:16;102387.97;;;22.67;52.33
69713;BME280;56980;51.826;4.424;2022-08-11T07:05:05;102390.16;;;22.83;52.09
69713;BME280;56980;51.826;4.424;2022-08-11T07:13:18;102386.72;;;22.88;51.23
69713;BME280;56980;51.826;4.424;2022-08-11T07:16:05;102380.56;;;22.99;51.70
69713;BME280;56980;51.826;4.424;2022-08-11T07:18:34;102385.66;;;23.06;51.66
69713;BME280;56980;51.826;4.424;2022-08-11T07:21:27;102382.69;;;23.10;50.83
69713;BME280;56980;51.826;4.424;2022-08-11T07:24:19;102393.16;;;23.26;50.78
69713;BME280;56980;51.826;4.424;2022-08-11T07:27:07;102386.75;;;23.40;49.91
69713;BME280;56980;51.826;4.424;2022-08-11T07:29:52;102378.31;;;23.49;49.39
69713;BME280;56980;51.826;4.424;2022-08-11T07:32:31;102390.44;;;23.57;49.46
69713;BME280;56980;51.826;4.424;2022-08-11T07:35:12;102383.41;;;23.56;49.09
69713;BME280;56980;51.826;4.424;2022-08-11T07:37:43;102392.75;;;23.64;48.99
69713;BME280;56980;51.826;4.424;2022-08-11T07:40:12;102384.75;;;23.72;48.67
69713;BME280;56980;51.826;4.424;2022-08-11T07:42:38;102388.50;;;23.63;49.71
69713;BME280;56980;51.826;4.424;2022-08-11T07:45:07;102381.81;;;23.81;48.25
69713;BME280;56980;51.826;4.424;2022-08-11T07:47:53;102378.78;;;23.79;48.21
69713;BME280;56980;51.826;4.424;2022-08-11T07:50:45;102361.91;;;23.77;48.98
69713;BME280;56980;51.826;4.424;2022-08-11T07:53:29;102372.06;;;23.91;49.47
69713;BME280;56980;51.826;4.424;2022-08-11T07:55:58;102386.44;;;24.32;47.74
69713;BME280;56980;51.826;4.424;2022-08-11T07:58:25;102387.47;;;24.40;47.19
69713;BME280;56980;51.826;4.424;2022-08-11T08:01:11;102381.94;;;24.40;48.96
69713;BME280;56980;51.826;4.424;2022-08-11T08:03:55;102377.28;;;24.74;47.96
69713;BME280;56980;51.826;4.424;2022-08-11T08:06:41;102384.72;;;25.05;47.81
69713;BME280;56980;51.826;4.424;2022-08-11T08:09:25;102365.31;;;25.11;47.00
69713;BME280;56980;51.826;4.424;2022-08-11T08:12:11;102377.16;;;25.34;45.32
69713;BME280;56980;51.826;4.424;2022-08-11T08:14:56;102383.00;;;25.52;44.85
69713;BME280;56980;51.826;4.424;2022-08-11T08:17:42;102386.28;;;25.73;44.85
69713;BME280;56980;51.826;4.424;2022-08-11T08:20:20;102389.06;;;25.73;45.04
69713;BME280;56980;51.826;4.424;2022-08-11T08:22:51;102389.34;;;25.64;44.75
69713;BME280;56980;51.826;4.424;2022-08-11T08:25:24;102391.81;;;25.95;45.11
69713;BME280;56980;51.826;4.424;2022-08-11T08:27:50;102391.78;;;26.07;43.93
69713;BME280;56980;51.826;4.424;2022-08-11T08:30:16;102379.94;;;26.00;44.26
69713;BME280;56980;51.826;4.424;2022-08-11T08:33:01;102380.69;;;25.95;43.78
69713;BME280;56980;51.826;4.424;2022-08-11T08:35:28;102386.91;;;26.40;43.94
69713;BME280;56980;51.826;4.424;2022-08-11T08:37:55;102389.09;;;26.64;42.79
69713;BME280;56980;51.826;4.424;2022-08-11T08:40:20;102390.56;;;26.76;42.43
69713;BME280;56980;51.826;4.424;2022-08-11T08:42:49;102395.09;;;26.74;43.15
69713;BME280;56980;51.826;4.424;2022-08-11T08:45:18;102383.94;;;26.85;41.79
69713;BME280;56980;51.826;4.424;2022-08-11T08:47:51;102391.72;;;26.98;41.29
69713;BME280;56980;51.826;4.424;2022-08-11T08:50:21;102391.44;;;27.07;42.50
69713;BME280;56980;51.826;4.424;2022-08-11T08:52:57;102380.47;;;27.14;41.86
69713;BME280;56980;51.826;4.424;2022-08-11T08:55:26;102382.38;;;27.31;41.59
69713;BME280;56980;51.826;4.424;2022-08-11T08:57:53;102381.53;;;27.41;39.95
69713;BME280;56980;51.826;4.424;2022-08-11T09:00:21;102380.22;;;27.48;40.28
69713;BME280;56980;51.826;4.424;2022-08-11T09:02:47;102388.31;;;27.51;40.22
69713;BME280;56980;51.826;4.424;2022-08-11T09:05:16;102376.91;;;27.49;39.72
69713;BME280;56980;51.826;4.424;2022-08-11T09:07:43;102382.78;;;27.76;39.72
69713;BME280;56980;51.826;4.424;2022-08-11T09:10:12;102386.75;;;27.86;38.48
69713;BME280;56980;51.826;4.424;2022-08-11T09:12:40;102371.56;;;27.87;39.17
69713;BME280;56980;51.826;4.424;2022-08-11T09:15:07;102367.94;;;27.92;38.56
69713;BME280;56980;51.826;4.424;2022-08-11T09:20:18;102375.28;;;28.19;38.27
69713;BME280;56980;51.826;4.424;2022-08-11T09:22:46;102367.91;;;28.22;37.74
69713;BME280;56980;51.826;4.424;2022-08-11T09:25:32;102365.56;;;28.45;37.38
69713;BME280;56980;51.826;4.424;2022-08-11T09:28:17;102370.19;;;28.61;36.64
69713;BME280;56980;51.826;4.424;2022-08-11T09:30:46;102363.88;;;28.79;36.01
69713;BME280;56980;51.826;4.424;2022-08-11T09:33:14;102369.22;;;28.96;36.01
69713;BME280;56980;51.826;4.424;2022-08-11T09:35:40;102364.16;;;28.94;36.86
69713;BME280;56980;51.826;4.424;2022-08-11T09:38:13;102357.56;;;29.10;35.35
69713;BME280;56980;51.826;4.424;2022-08-11T09:40:58;102343.31;;;29.14;34.64
69713;BME280;56980;51.826;4.424;2022-08-11T09:43:27;102360.16;;;29.40;34.54
69713;BME280;56980;51.826;4.424;2022-08-11T09:46:11;102356.38;;;29.38;33.60
69713;BME280;56980;51.826;4.424;2022-08-11T09:48:46;102349.97;;;29.43;33.25
69713;BME280;56980;51.826;4.424;2022-08-11T09:51:13;102341.59;;;29.43;33.82
69713;BME280;56980;51.826;4.424;2022-08-11T09:53:41;102348.06;;;29.64;34.04
69713;BME280;56980;51.826;4.424;2022-08-11T09:56:13;102349.38;;;29.76;33.70
69713;BME280;56980;51.826;4.424;2022-08-11T09:58:59;102333.88;;;29.75;32.91
69713;BME280;56980;51.826;4.424;2022-08-11T10:01:36;102345.25;;;29.90;32.34
69713;BME280;56980;51.826;4.424;2022-08-11T10:06:37;102341.22;;;30.05;31.41
69713;BME280;56980;51.826;4.424;2022-08-11T10:09:23;102340.97;;;30.29;31.45
69713;BME280;56980;51.826;4.424;2022-08-11T10:11:52;102337.66;;;30.30;32.04
69713;BME280;56980;51.826;4.424;2022-08-11T10:14:19;102332.78;;;30.31;32.26
69713;BME280;56980;51.826;4.424;2022-08-11T10:17:06;102335.13;;;30.40;31.79
69713;BME280;56980;51.826;4.424;2022-08-11T10:19:33;102323.06;;;30.58;32.19
69713;BME280;56980;51.826;4.424;2022-08-11T10:22:01;102324.28;;;30.50;32.50
69713;BME280;56980;51.826;4.424;2022-08-11T10:24:46;102326.59;;;30.59;31.29
69713;BME280;56980;51.826;4.424;2022-08-11T10:27:31;102324.72;;;30.75;30.55
69713;BME280;56980;51.826;4.424;2022-08-11T10:29:58;102329.38;;;30.93;30.72
69713;BME280;56980;51.826;4.424;2022-08-11T10:32:43;102332.00;;;30.91;27.93
69713;BME280;56980;51.826;4.424;2022-08-11T10:35:29;102330.09;;;31.06;28.15
69713;BME280;56980;51.826;4.424;2022-08-11T10:37:56;102333.88;;;31.09;27.66
69713;BME280;56980;51.826;4.424;2022-08-11T10:40:23;102322.59;;;31.22;27.72
69713;BME280;56980;51.826;4.424;2022-08-11T10:42:55;102328.59;;;31.26;26.90
69713;BME280;56980;51.826;4.424;2022-08-11T10:45:33;102301.25;;;31.19;27.07
69713;BME280;56980;51.826;4.424;2022-08-11T10:48:19;102310.75;;;31.37;27.25
69713;BME280;56980;51.826;4.424;2022-08-11T10:50:46;102316.63;;;31.26;26.93
69713;BME280;56980;51.826;4.424;2022-08-11T10:53:32;102308.81;;;31.32;27.04
69713;BME280;56980;51.826;4.424;2022-08-11T10:56:17;102314.09;;;31.35;26.76
69713;BME280;56980;51.826;4.424;2022-08-11T10:59:02;102313.41;;;31.42;25.91
69713;BME280;56980;51.826;4.424;2022-08-11T11:01:33;102321.72;;;31.56;27.10
69713;BME280;56980;51.826;4.424;2022-08-11T11:04:11;102306.16;;;31.75;27.37
69713;BME280;56980;51.826;4.424;2022-08-11T11:07:03;102308.25;;;31.82;27.06
69713;BME280;56980;51.826;4.424;2022-08-11T11:09:31;102297.22;;;31.77;26.89
69713;BME280;56980;51.826;4.424;2022-08-11T11:12:08;102297.53;;;31.73;26.81
69713;BME280;56980;51.826;4.424;2022-08-11T11:14:54;102305.28;;;31.88;27.20
69713;BME280;56980;51.826;4.424;2022-08-11T11:17:42;102313.81;;;32.11;26.05
69713;BME280;56980;51.826;4.424;2022-08-11T11:23:17;102302.50;;;31.88;26.58
69713;BME280;56980;51.826;4.424;2022-08-11T11:36:59;102294.75;;;32.09;26.24
69713;BME280;56980;51.826;4.424;2022-08-11T11:39:26;102298.53;;;32.19;26.15
69713;BME280;56980;51.826;4.424;2022-08-11T11:41:55;102296.44;;;32.12;26.69
69713;BME280;56980;51.826;4.424;2022-08-11T11:44:21;102293.84;;;32.14;25.90
69713;BME280;56980;51.826;4.424;2022-08-11T11:46:48;102280.63;;;32.30;24.93
69713;BME280;56980;51.826;4.424;2022-08-11T11:49:18;102281.75;;;32.35;25.61
69713;BME280;56980;51.826;4.424;2022-08-11T11:51:46;102287.41;;;32.50;24.98
69713;BME280;56980;51.826;4.424;2022-08-11T11:54:14;102272.44;;;32.55;24.90
69713;BME280;56980;51.826;4.424;2022-08-11T11:56:40;102281.78;;;32.42;25.00
69713;BME280;56980;51.826;4.424;2022-08-11T11:59:08;102277.50;;;32.49;24.82
69713;BME280;56980;51.826;4.424;2022-08-11T12:01:54;102264.59;;;32.46;24.46
69713;BME280;56980;51.826;4.424;2022-08-11T12:04:20;102271.13;;;32.48;24.46
69713;BME280;56980;51.826;4.424;2022-08-11T12:06:46;102254.84;;;32.47;25.28
69713;BME280;56980;51.826;4.424;2022-08-11T12:09:12;102271.13;;;32.56;24.48
69713;BME280;56980;51.826;4.424;2022-08-11T12:11:48;102258.78;;;32.44;24.11
69713;BME280;56980;51.826;4.424;2022-08-11T12:14:33;102241.78;;;32.57;24.80
69713;BME280;56980;51.826;4.424;2022-08-11T12:17:00;102261.63;;;32.74;23.85
69713;BME280;56980;51.826;4.424;2022-08-11T12:19:26;102258.97;;;32.61;24.30
69713;BME280;56980;51.826;4.424;2022-08-11T12:21:54;102253.41;;;32.76;24.52
69713;BME280;56980;51.826;4.424;2022-08-11T12:24:40;102256.03;;;32.74;24.08
69713;BME280;56980;51.826;4.424;2022-08-11T12:27:26;102249.47;;;32.94;23.74
69713;BME280;56980;51.826;4.424;2022-08-11T12:29:56;102249.66;;;32.89;24.19
69713;BME280;56980;51.826;4.424;2022-08-11T12:32:26;102238.44;;;33.04;23.18
69713;BME280;56980;51.826;4.424;2022-08-11T12:34:51;102242.75;;;33.05;23.56
69713;BME280;56980;51.826;4.424;2022-08-11T12:37:23;102230.56;;;32.87;23.61
69713;BME280;56980;51.826;4.424;2022-08-11T12:39:58;102232.47;;;33.00;24.22
69713;BME280;56980;51.826;4.424;2022-08-11T12:42:43;102229.63;;;33.08;23.90
69713;BME280;56980;51.826;4.424;2022-08-11T12:45:27;102233.75;;;33.22;23.32
69713;BME280;56980;51.826;4.424;2022-08-11T12:50:46;102235.00;;;33.43;22.97
69713;BME280;56980;51.826;4.424;2022-08-11T12:53:32;102228.28;;;33.47;23.04
69713;BME280;56980;51.826;4.424;2022-08-11T12:56:03;102228.09;;;33.37;23.62
69713;BME280;56980;51.826;4.424;2022-08-11T12:58:50;102217.03;;;33.39;23.37
69713;BME280;56980;51.826;4.424;2022-08-11T13:01:17;102209.16;;;33.45;22.64
69713;BME280;56980;51.826;4.424;2022-08-11T13:04:02;102215.84;;;33.65;22.65
69713;BME280;56980;51.826;4.424;2022-08-11T13:06:48;102207.19;;;33.70;22.59
69713;BME280;56980;51.826;4.424;2022-08-11T13:09:16;102210.97;;;33.58;23.27
69713;BME280;56980;51.826;4.424;2022-08-11T13:11:44;102205.19;;;33.48;23.71
69713;BME280;56980;51.826;4.424;2022-08-11T13:14:29;102175.19;;;33.58;22.14
69713;BME280;56980;51.826;4.424;2022-08-11T13:16:58;102200.03;;;33.85;23.08
69713;BME280;56980;51.826;4.424;2022-08-11T13:19:42;102197.41;;;33.87;21.90
69713;BME280;56980;51.826;4.424;2022-08-11T13:22:10;102198.53;;;33.84;22.15
69713;BME280;56980;51.826;4.424;2022-08-11T13:24:38;102194.22;;;34.15;20.83
69713;BME280;56980;51.826;4.424;2022-08-11T13:27:04;102198.06;;;34.35;20.68
69713;BME280;56980;51.826;4.424;2022-08-11T13:29:30;102186.56;;;34.40;20.61
69713;BME280;56980;51.826;4.424;2022-08-11T13:31:56;102192.03;;;34.38;21.14
69713;BME280;56980;51.826;4.424;2022-08-11T13:34:25;102191.19;;;34.28;21.31
69713;BME280;56980;51.826;4.424;2022-08-11T13:36:57;102179.63;;;34.09;21.48
69713;BME280;56980;51.826;4.424;2022-08-11T13:39:28;102188.69;;;34.32;21.24
69713;BME280;56980;51.826;4.424;2022-08-11T13:41:56;102187.38;;;34.33;20.81
69713;BME280;56980;51.826;4.424;2022-08-11T13:44:25;102186.22;;;34.36;21.26
69713;BME280;56980;51.826;4.424;2022-08-11T13:46:53;102184.81;;;34.20;21.40
69713;BME280;56980;51.826;4.424;2022-08-11T13:49:20;102189.50;;;34.25;21.14
69713;BME280;56980;51.826;4.424;2022-08-11T13:51:46;102184.81;;;34.20;20.65
69713;BME280;56980;51.826;4.424;2022-08-11T13:54:17;102174.81;;;34.34;20.51
69713;BME280;56980;51.826;4.424;2022-08-11T13:56:45;102178.00;;;34.31;20.93
69713;BME280;56980;51.826;4.424;2022-08-11T13:59:13;102169.69;;;34.40;21.08
69713;BME280;56980;51.826;4.424;2022-08-11T14:01:41;102183.81;;;34.57;21.27
69713;BME280;56980;51.826;4.424;2022-08-11T14:04:15;102175.44;;;34.75;20.58
69713;BME280;56980;51.826;4.424;2022-08-11T14:06:52;102179.84;;;34.61;20.41
69713;BME280;56980;51.826;4.424;2022-08-11T14:09:22;102167.38;;;34.71;20.22
69713;BME280;56980;51.826;4.424;2022-08-11T14:11:49;102161.34;;;34.75;19.91
69713;BME280;56980;51.826;4.424;2022-08-11T14:14:34;102166.50;;;34.61;21.07
69713;BME280;56980;51.826;4.424;2022-08-11T14:17:04;102169.09;;;34.67;19.99
69713;BME280;56980;51.826;4.424;2022-08-11T14:19:41;102161.28;;;34.57;20.33
69713;BME280;56980;51.826;4.424;2022-08-11T14:22:10;102153.47;;;34.48;21.04
69713;BME280;56980;51.826;4.424;2022-08-11T14:24:39;102154.75;;;34.30;20.54
69713;BME280;56980;51.826;4.424;2022-08-11T14:27:06;102149.75;;;34.21;20.89
69713;BME280;56980;51.826;4.424;2022-08-11T14:29:32;102155.66;;;34.57;20.28
69713;BME280;56980;51.826;4.424;2022-08-11T14:32:05;102161.69;;;34.79;20.27
69713;BME280;56980;51.826;4.424;2022-08-11T14:34:31;102153.41;;;34.81;19.92
69713;BME280;56980;51.826;4.424;2022-08-11T14:37:25;102155.88;;;34.77;20.09
69713;BME280;56980;51.826;4.424;2022-08-11T14:39:58;102137.00;;;34.87;19.77
69713;BME280;56980;51.826;4.424;2022-08-11T14:42:25;102145.59;;;34.89;19.96
69713;BME280;56980;51.826;4.424;2022-08-11T14:45:13;102137.81;;;34.97;19.08
69713;BME280;56980;51.826;4.424;2022-08-11T14:48:14;102139.06;;;35.04;19.45
69713;BME280;56980;51.826;4.424;2022-08-11T14:50:40;102137.25;;;34.98;19.60
69713;BME280;56980;51.826;4.424;2022-08-11T14:53:10;102139.66;;;35.19;18.95
69713;BME280;56980;51.826;4.424;2022-08-11T14:55:38;102135.59;;;35.13;18.41
69713;BME280;56980;51.826;4.424;2022-08-11T14:58:26;102130.53;;;34.94;18.53
69713;BME280;56980;51.826;4.424;2022-08-11T15:00:54;102140.06;;;34.81;18.49
69713;BME280;56980;51.826;4.424;2022-08-11T15:03:21;102132.38;;;34.82;18.52
69713;BME280;56980;51.826;4.424;2022-08-11T15:05:55;102137.16;;;35.06;18.53
69713;BME280;56980;51.826;4.424;2022-08-11T15:08:22;102129.78;;;34.93;18.73
69713;BME280;56980;51.826;4.424;2022-08-11T15:11:09;102122.75;;;35.02;19.13
69713;BME280;56980;51.826;4.424;2022-08-11T15:13:56;102123.09;;;35.06;18.41
69713;BME280;56980;51.826;4.424;2022-08-11T15:16:24;102130.69;;;35.13;18.33
69713;BME280;56980;51.826;4.424;2022-08-11T15:19:09;102121.91;;;34.92;18.61
69713;BME280;56980;51.826;4.424;2022-08-11T15:21:35;102123.59;;;34.95;18.82
69713;BME280;56980;51.826;4.424;2022-08-11T15:24:19;102126.72;;;34.99;19.02
69713;BME280;56980;51.826;4.424;2022-08-11T15:26:45;102119.50;;;35.06;18.92
69713;BME280;56980;51.826;4.424;2022-08-11T15:29:33;102109.66;;;35.14;19.27
69713;BME280;56980;51.826;4.424;2022-08-11T15:32:19;102109.47;;;35.12;18.82
69713;BME280;56980;51.826;4.424;2022-08-11T15:34:58;102113.13;;;35.05;19.69
69713;BME280;56980;51.826;4.424;2022-08-11T15:37:44;102104.75;;;35.15;19.49
69713;BME280;56980;51.826;4.424;2022-08-11T15:40:16;102105.50;;;35.15;20.10
69713;BME280;56980;51.826;4.424;2022-08-11T15:46:31;102092.75;;;35.14;19.38
69713;BME280;56980;51.826;4.424;2022-08-11T15:49:11;102078.81;;;35.16;20.18
69713;BME280;56980;51.826;4.424;2022-08-11T15:51:43;102081.00;;;34.91;19.70
69713;BME280;56980;51.826;4.424;2022-08-11T15:54:14;102095.06;;;34.91;20.33
69713;BME280;56980;51.826;4.424;2022-08-11T15:56:44;102094.16;;;35.23;20.00
69713;BME280;56980;51.826;4.424;2022-08-11T15:59:13;102087.41;;;35.18;20.17
69713;BME280;56980;51.826;4.424;2022-08-11T16:01:57;102082.47;;;35.26;20.12
69713;BME280;56980;51.826;4.424;2022-08-11T16:04:44;102078.63;;;35.31;19.88
69713;BME280;56980;51.826;4.424;2022-08-11T16:07:13;102081.63;;;35.16;19.95
69713;BME280;56980;51.826;4.424;2022-08-11T16:09:43;102075.19;;;35.06;20.61
69713;BME280;56980;51.826;4.424;2022-08-11T16:12:14;102082.16;;;35.22;20.14
69713;BME280;56980;51.826;4.424;2022-08-11T16:14:44;102074.00;;;35.09;20.22
69713;BME280;56980;51.826;4.424;2022-08-11T16:17:34;102067.53;;;35.16;20.61
69713;BME280;56980;51.826;4.424;2022-08-11T16:20:02;102063.16;;;35.06;21.26
69713;BME280;56980;51.826;4.424;2022-08-11T16:22:31;102065.41;;;35.07;20.80
69713;BME280;56980;51.826;4.424;2022-08-11T16:25:17;102060.84;;;35.12;21.92
69713;BME280;56980;51.826;4.424;2022-08-11T16:27:50;102060.91;;;35.04;22.09
69713;BME280;56980;51.826;4.424;2022-08-11T16:30:16;102061.94;;;34.99;22.69
69713;BME280;56980;51.826;4.424;2022-08-11T16:32:47;102062.41;;;35.05;22.61
69713;BME280;56980;51.826;4.424;2022-08-11T16:35:20;102054.13;;;35.24;22.56